Time;durP1;ratioP1;P1;durP2;ratioP2;P2;SDS_P1;SDS_P2;PMS_P1;PMS_P2;Temp;Humidity;BMP_temperature;BMP_pressure;BME280_temperature;BME280_humidity;BME280_pressure;Samples;Min_cycle;Max_cycle;Signal;HPM_P1;HPM_P2
2022/11/01 00:01:11;;;;;;;4.15;2.67;;;16.80;99.90;;;;;;5014463;28;20531;-77
2022/11/01 00:03:36;;;;;;;3.50;3.05;;;16.90;99.90;;;;;;5014936;28;20383;-77
2022/11/01 00:06:02;;;;;;;3.60;2.55;;;16.80;99.90;;;;;;5014601;28;20113;-77
2022/11/01 00:08:28;;;;;;;3.00;2.58;;;16.80;99.90;;;;;;5014227;28;20026;-77
2022/11/01 00:11:02;;;;;;;3.17;2.38;;;16.90;99.90;;;;;;5014323;28;20101;-77
2022/11/01 00:13:28;;;;;;;3.20;2.70;;;16.90;99.90;;;;;;5014165;28;20026;-77
2022/11/01 00:15:53;;;;;;;3.47;2.08;;;16.90;99.90;;;;;;5014250;28;20026;-77
2022/11/01 00:18:19;;;;;;;3.22;2.13;;;16.90;99.90;;;;;;5014343;28;20080;-77
2022/11/01 00:20:45;;;;;;;3.53;2.13;;;16.90;99.90;;;;;;5014258;28;20494;-78
2022/11/01 00:23:11;;;;;;;2.35;2.00;;;16.90;99.90;;;;;;5014479;28;20103;-78
2022/11/01 00:25:37;;;;;;;2.83;2.20;;;16.70;99.90;;;;;;5014098;28;20567;-79
2022/11/01 00:28:03;;;;;;;2.08;1.88;;;16.70;99.90;;;;;;5013977;28;20400;-78
2022/11/01 00:30:28;;;;;;;2.63;1.80;;;16.70;99.90;;;;;;5012833;28;20029;-78
2022/11/01 00:32:56;;;;;;;1.85;1.50;;;16.60;99.90;;;;;;5012794;28;20487;-77
2022/11/01 00:35:23;;;;;;;3.22;1.92;;;16.50;99.90;;;;;;5014269;28;20049;-78
2022/11/01 00:37:48;;;;;;;2.17;1.98;;;16.40;99.90;;;;;;5012628;28;20519;-78
2022/11/01 00:40:14;;;;;;;3.10;2.00;;;16.40;99.90;;;;;;5014049;28;20030;-78
2022/11/01 00:42:40;;;;;;;2.30;1.60;;;16.40;99.90;;;;;;4997737;28;20096;-78
2022/11/01 00:45:06;;;;;;;2.85;1.70;;;16.40;99.90;;;;;;5004955;28;20484;-78
2022/11/01 00:47:32;;;;;;;3.28;1.70;;;16.50;99.90;;;;;;5013760;28;20499;-78
2022/11/01 00:49:58;;;;;;;2.17;1.10;;;16.50;99.90;;;;;;5013847;28;20076;-77
2022/11/01 00:52:23;;;;;;;3.95;1.90;;;16.30;99.90;;;;;;5013861;28;20514;-78
2022/11/01 00:54:49;;;;;;;3.30;2.00;;;16.30;99.90;;;;;;5013975;28;20030;-78
2022/11/01 00:57:15;;;;;;;3.47;1.65;;;16.20;99.90;;;;;;5013657;28;20108;-78
2022/11/01 00:59:40;;;;;;;4.90;2.03;;;16.30;99.90;;;;;;5013475;28;20496;-78
2022/11/01 01:02:06;;;;;;;3.42;2.10;;;16.10;99.90;;;;;;5013734;28;20092;-78
2022/11/01 01:04:32;;;;;;;5.35;1.92;;;16.20;99.90;;;;;;5013338;28;20030;-78
2022/11/01 01:06:57;;;;;;;3.28;2.10;;;16.10;99.90;;;;;;5013382;28;20510;-78
2022/11/01 01:09:23;;;;;;;5.25;1.98;;;16.10;99.90;;;;;;5013653;28;20148;-78
2022/11/01 01:11:49;;;;;;;2.65;1.40;;;16.10;99.90;;;;;;5013095;28;20104;-78
2022/11/01 01:14:14;;;;;;;2.97;1.40;;;16.10;99.90;;;;;;5013031;28;20489;-78
2022/11/01 01:16:40;;;;;;;3.30;1.45;;;16.10;99.90;;;;;;5013279;28;20419;-78
2022/11/01 01:19:06;;;;;;;3.90;1.58;;;16.10;99.90;;;;;;5013381;28;20014;-78
2022/11/01 01:21:32;;;;;;;7.10;1.83;;;15.90;99.90;;;;;;5013211;28;20050;-78
2022/11/01 01:23:58;;;;;;;2.58;1.38;;;15.80;99.90;;;;;;5013110;28;20104;-78
2022/11/01 01:26:23;;;;;;;3.03;1.30;;;15.80;99.90;;;;;;5013024;28;20155;-78
2022/11/01 01:28:52;;;;;;;5.00;1.60;;;15.70;99.90;;;;;;5012694;28;20091;-78
2022/11/01 01:31:18;;;;;;;5.13;1.50;;;15.60;99.90;;;;;;5012923;28;20034;-78
2022/11/01 01:33:44;;;;;;;5.60;1.02;;;15.60;99.90;;;;;;5012989;28;20017;-78
2022/11/01 01:36:10;;;;;;;3.80;1.27;;;15.50;99.90;;;;;;5013061;28;20534;-78
2022/11/01 01:38:35;;;;;;;4.72;1.27;;;15.50;99.90;;;;;;5003167;28;20026;-78
2022/11/01 01:43:46;;;;;;;1.65;0.70;;;15.70;99.90;;;;;;5012720;28;20088;-78
2022/11/01 01:46:12;;;;;;;2.83;0.85;;;15.60;99.90;;;;;;4993532;28;20042;-79
2022/11/01 01:48:40;;;;;;;2.63;1.10;;;15.60;99.90;;;;;;4993285;28;20510;-78
2022/11/01 01:51:10;;;;;;;3.67;1.38;;;15.70;99.90;;;;;;5011466;28;20025;-78
2022/11/01 01:53:40;;;;;;;2.92;1.15;;;15.60;99.90;;;;;;5013027;28;20026;-78
2022/11/01 01:56:34;;;;;;;3.08;0.90;;;15.60;99.90;;;;;;5012732;28;20045;-78
2022/11/01 01:59:05;;;;;;;3.53;1.10;;;15.60;99.90;;;;;;5009350;28;20057;-78
2022/11/01 02:01:34;;;;;;;4.13;1.13;;;15.60;99.90;;;;;;5012872;28;20053;-78
2022/11/01 02:04:00;;;;;;;2.40;1.33;;;15.50;99.90;;;;;;5012715;28;20018;-78
2022/11/01 02:06:26;;;;;;;4.93;1.33;;;15.40;99.90;;;;;;5012396;28;20021;-78
2022/11/01 02:08:55;;;;;;;4.60;1.08;;;15.40;99.90;;;;;;5012743;28;20099;-78
2022/11/01 02:11:21;;;;;;;3.22;0.93;;;15.40;99.90;;;;;;5012328;28;20018;-78
2022/11/01 02:13:47;;;;;;;3.95;1.10;;;15.40;99.90;;;;;;5012215;28;20022;-78
2022/11/01 02:16:19;;;;;;;2.65;1.00;;;15.30;99.90;;;;;;5012812;28;20022;-78
2022/11/01 02:19:10;;;;;;;1.58;0.70;;;15.30;99.90;;;;;;5012688;28;20026;-78
2022/11/01 02:21:53;;;;;;;2.47;1.00;;;15.30;99.90;;;;;;5004135;28;20049;-78
2022/11/01 02:25:01;;;;;;;2.90;0.85;;;15.40;99.90;;;;;;5012228;28;20040;-78
2022/11/01 02:28:04;;;;;;;4.40;0.90;;;15.30;99.90;;;;;;5012423;28;20034;-78
2022/11/01 02:31:04;;;;;;;3.10;0.90;;;15.30;99.90;;;;;;5012275;28;20019;-78
2022/11/01 02:33:38;;;;;;;7.75;1.63;;;15.30;99.90;;;;;;5012244;28;20029;-79
2022/11/01 02:36:11;;;;;;;2.35;0.82;;;15.40;99.90;;;;;;5012443;28;20018;-78
2022/11/01 02:39:00;;;;;;;1.60;0.70;;;15.40;99.90;;;;;;5012086;28;20026;-78
2022/11/01 02:41:34;;;;;;;2.03;0.90;;;15.50;99.90;;;;;;5006158;28;20023;-78
2022/11/01 02:44:06;;;;;;;1.00;0.60;;;15.60;99.90;;;;;;4995076;28;20065;-78
2022/11/01 02:49:26;;;;;;;2.77;0.83;;;15.50;99.90;;;;;;5016276;28;20399;-78
2022/11/01 02:51:54;;;;;;;1.88;0.57;;;15.60;99.90;;;;;;5016083;28;20084;-78
2022/11/01 02:54:38;;;;;;;1.88;0.80;;;15.60;99.90;;;;;;5015907;28;20072;-78
2022/11/01 02:57:16;;;;;;;2.30;0.90;;;15.50;99.90;;;;;;5016064;28;20022;-78
2022/11/01 02:59:44;;;;;;;3.00;1.05;;;15.40;99.90;;;;;;5015836;28;20044;-78
2022/11/01 03:02:17;;;;;;;2.13;0.77;;;15.50;99.90;;;;;;5015904;28;20033;-78
2022/11/01 03:04:43;;;;;;;2.47;0.65;;;15.50;99.90;;;;;;5015919;28;20101;-78
2022/11/01 03:07:12;;;;;;;2.53;0.93;;;15.40;99.90;;;;;;5015625;28;20033;-78
2022/11/01 03:09:39;;;;;;;2.42;0.50;;;15.50;99.90;;;;;;5015746;28;20022;-79
2022/11/01 03:12:09;;;;;;;2.15;0.60;;;15.40;99.90;;;;;;5015404;28;20029;-78
2022/11/01 03:14:45;;;;;;;0.77;0.30;;;15.50;99.90;;;;;;5015502;28;20026;-78
2022/11/01 03:17:27;;;;;;;4.30;1.20;;;15.40;99.90;;;;;;5015716;28;20326;-78
2022/11/01 03:20:01;;;;;;;1.15;0.57;;;15.40;99.90;;;;;;5015697;28;20018;-78
2022/11/01 03:22:35;;;;;;;1.65;0.60;;;15.40;99.90;;;;;;5015451;28;20079;-78
2022/11/01 03:25:39;;;;;;;1.65;0.50;;;15.30;99.90;;;;;;5015089;28;20057;-78
2022/11/01 03:28:41;;;;;;;1.98;0.50;;;15.30;99.90;;;;;;5012165;28;20117;-78
2022/11/01 03:31:15;;;;;;;0.95;0.50;;;15.50;99.90;;;;;;5011560;28;20109;-78
2022/11/01 03:33:47;;;;;;;2.63;0.68;;;15.50;99.90;;;;;;5015357;28;20125;-78
2022/11/01 03:36:19;;;;;;;2.65;0.95;;;15.50;99.90;;;;;;5015414;28;20053;-78
2022/11/01 03:39:01;;;;;;;1.85;0.68;;;15.40;99.90;;;;;;5003767;28;20032;-78
2022/11/01 03:41:31;;;;;;;1.08;0.60;;;15.30;99.90;;;;;;5001380;28;20475;-78
2022/11/01 03:43:58;;;;;;;1.63;0.50;;;15.40;99.90;;;;;;5014587;28;20021;-78
2022/11/01 03:46:25;;;;;;;1.90;0.50;;;15.40;99.90;;;;;;5030524;28;20033;-78
2022/11/01 03:48:50;;;;;;;1.35;0.57;;;15.30;99.90;;;;;;5015001;28;20026;-78
2022/11/01 03:51:16;;;;;;;2.13;0.73;;;15.40;99.90;;;;;;5014910;28;20049;-78
2022/11/01 03:53:42;;;;;;;1.17;0.50;;;15.50;99.90;;;;;;5014723;28;20028;-77
2022/11/01 03:56:08;;;;;;;1.00;0.50;;;15.50;99.90;;;;;;5014785;28;20113;-78
2022/11/01 03:58:44;;;;;;;0.80;0.40;;;15.40;99.90;;;;;;5014601;28;20721;-78
2022/11/01 04:01:12;;;;;;;0.65;0.30;;;15.40;99.90;;;;;;5013397;28;20495;-78
2022/11/01 04:03:38;;;;;;;0.50;0.50;;;15.30;99.90;;;;;;5014768;28;20014;-78
2022/11/01 04:06:04;;;;;;;1.00;0.50;;;15.30;99.90;;;;;;5014701;28;20369;-78
2022/11/01 04:08:31;;;;;;;3.05;0.60;;;15.20;99.90;;;;;;5014111;28;20026;-78
2022/11/01 04:10:57;;;;;;;1.55;0.50;;;15.30;99.90;;;;;;5014633;28;20022;-78
2022/11/01 04:13:23;;;;;;;2.13;0.80;;;15.30;99.90;;;;;;5014236;28;20022;-78
2022/11/01 04:21:31;;;;;;;0.80;0.40;;;15.30;99.90;;;;;;5014612;28;20494;-78
2022/11/01 04:23:56;;;;;;;1.52;0.95;;;15.30;99.90;;;;;;5014331;28;20110;-77
2022/11/01 04:26:23;;;;;;;1.05;0.52;;;15.40;99.90;;;;;;5014113;28;20473;-77
2022/11/01 04:28:58;;;;;;;2.50;0.63;;;15.40;99.90;;;;;;5013838;28;20048;-77
2022/11/01 04:31:31;;;;;;;1.55;0.70;;;15.40;99.90;;;;;;5014436;28;20037;-77
2022/11/01 04:33:58;;;;;;;0.98;0.50;;;15.30;99.90;;;;;;5014167;28;20080;-77
2022/11/01 04:36:24;;;;;;;0.90;0.57;;;15.30;99.90;;;;;;5014158;28;20045;-78
2022/11/01 04:38:54;;;;;;;1.00;0.70;;;15.30;99.90;;;;;;5002262;28;20160;-78
2022/11/01 04:41:21;;;;;;;0.95;0.50;;;15.30;99.90;;;;;;4998852;28;20030;-77
2022/11/01 04:43:48;;;;;;;1.08;0.60;;;15.40;99.90;;;;;;5013646;28;20026;-78
2022/11/01 04:46:14;;;;;;;2.05;0.82;;;15.30;99.90;;;;;;5014269;28;20052;-78
2022/11/01 04:48:41;;;;;;;2.05;0.55;;;15.30;99.90;;;;;;5013793;28;20033;-78
2022/11/01 04:51:07;;;;;;;1.70;1.00;;;15.30;99.90;;;;;;5013543;28;20030;-78
2022/11/01 04:53:33;;;;;;;1.92;0.65;;;15.30;99.90;;;;;;5014048;28;20033;-78
2022/11/01 04:56:02;;;;;;;2.33;0.70;;;15.40;99.90;;;;;;5013453;28;20034;-78
2022/11/01 04:58:28;;;;;;;1.00;0.70;;;15.30;99.90;;;;;;5013638;28;20113;-78
2022/11/01 05:00:54;;;;;;;1.35;0.50;;;15.30;99.90;;;;;;5013864;28;20100;-78
2022/11/01 05:03:20;;;;;;;3.05;0.80;;;15.10;99.90;;;;;;5013838;28;20567;-78
2022/11/01 05:05:45;;;;;;;1.23;0.90;;;15.10;99.90;;;;;;5013418;28;20030;-78
2022/11/01 05:08:12;;;;;;;2.83;1.25;;;15.00;99.90;;;;;;5012822;28;20025;-78
2022/11/01 05:10:43;;;;;;;2.47;0.82;;;15.10;99.90;;;;;;5013273;28;20025;-78
2022/11/01 05:13:10;;;;;;;3.38;1.25;;;15.10;99.90;;;;;;5013082;28;20018;-78
2022/11/01 05:15:36;;;;;;;4.05;1.20;;;15.00;99.90;;;;;;5013315;28;20018;-78
2022/11/01 05:18:02;;;;;;;2.70;0.98;;;15.00;99.90;;;;;;5013354;28;20030;-78
2022/11/01 05:20:29;;;;;;;3.78;1.25;;;15.00;99.90;;;;;;5013319;28;20029;-78
2022/11/01 05:23:02;;;;;;;3.45;1.20;;;15.00;99.90;;;;;;5013545;28;20033;-78
2022/11/01 05:25:28;;;;;;;1.90;1.10;;;15.00;99.90;;;;;;5012907;28;20058;-78
2022/11/01 05:28:10;;;;;;;2.83;1.05;;;14.90;99.90;;;;;;5013268;28;20213;-78
2022/11/01 05:30:37;;;;;;;2.15;1.00;;;14.90;99.90;;;;;;5013072;28;20014;-77
2022/11/01 05:33:04;;;;;;;2.13;1.02;;;15.00;99.90;;;;;;5013200;28;20102;-78
2022/11/01 05:35:31;;;;;;;4.10;1.02;;;15.00;99.90;;;;;;5012834;28;20033;-77
2022/11/01 05:37:57;;;;;;;3.67;1.10;;;15.00;99.90;;;;;;5015352;28;20026;-78
2022/11/01 05:40:23;;;;;;;3.63;1.27;;;15.00;99.90;;;;;;5017199;28;20033;-77
2022/11/01 05:42:49;;;;;;;3.10;0.80;;;15.00;99.90;;;;;;5016696;28;20033;-77
2022/11/01 05:45:15;;;;;;;2.10;1.15;;;15.10;99.90;;;;;;5012535;28;20030;-78
2022/11/01 05:47:41;;;;;;;3.53;0.95;;;15.10;99.90;;;;;;5012849;28;20041;-78
2022/11/01 05:50:11;;;;;;;4.40;1.55;;;15.10;99.90;;;;;;5012832;28;20018;-78
2022/11/01 05:52:37;;;;;;;1.83;1.00;;;15.00;99.90;;;;;;5012941;28;20065;-78
2022/11/01 05:55:04;;;;;;;1.85;0.82;;;15.10;99.90;;;;;;5015036;28;20022;-78
2022/11/01 05:57:30;;;;;;;2.38;1.08;;;15.10;99.90;;;;;;5012577;28;20021;-78
2022/11/01 05:59:56;;;;;;;1.25;0.90;;;15.00;99.90;;;;;;5012384;28;20525;-78
2022/11/01 06:02:22;;;;;;;1.77;0.70;;;15.10;99.90;;;;;;5010360;28;20400;-78
2022/11/01 06:04:47;;;;;;;1.67;0.90;;;15.00;99.90;;;;;;5011914;28;20040;-78
2022/11/01 06:07:13;;;;;;;2.28;0.88;;;15.00;99.90;;;;;;5012429;28;20049;-78
2022/11/01 06:09:39;;;;;;;0.73;0.50;;;15.10;99.90;;;;;;5012211;28;20032;-78
2022/11/01 06:12:04;;;;;;;2.33;0.75;;;15.20;99.90;;;;;;5012253;28;20063;-78
2022/11/01 06:14:30;;;;;;;0.95;0.60;;;15.10;99.90;;;;;;5011911;28;20435;-78
2022/11/01 06:16:56;;;;;;;1.85;0.70;;;15.10;99.90;;;;;;5012608;28;20022;-78
2022/11/01 06:19:21;;;;;;;2.58;0.73;;;15.00;99.90;;;;;;5012333;28;20053;-78
2022/11/01 06:21:47;;;;;;;1.80;0.73;;;14.90;99.90;;;;;;5012411;28;20476;-78
2022/11/01 06:24:13;;;;;;;2.53;0.80;;;14.90;99.90;;;;;;5012654;28;20030;-78
2022/11/01 06:26:38;;;;;;;2.22;1.05;;;14.90;99.90;;;;;;5011638;28;20655;-78
2022/11/01 06:29:04;;;;;;;2.63;1.00;;;15.00;99.90;;;;;;5011543;28;20034;-78
2022/11/01 06:31:30;;;;;;;2.17;0.73;;;14.90;99.90;;;;;;5012198;28;20018;-78
2022/11/01 06:33:56;;;;;;;3.00;0.90;;;15.00;99.90;;;;;;5012554;28;20479;-78
2022/11/01 06:36:22;;;;;;;2.28;0.85;;;15.00;99.90;;;;;;5027270;28;20022;-78
2022/11/01 06:38:48;;;;;;;2.28;0.85;;;15.00;99.90;;;;;;5012453;28;20554;-78
2022/11/01 06:41:14;;;;;;;2.13;0.90;;;14.90;99.90;;;;;;5007913;28;20025;-78
2022/11/01 06:43:40;;;;;;;2.20;0.75;;;15.00;99.90;;;;;;4992527;28;20033;-78
2022/11/01 06:46:06;;;;;;;2.92;0.80;;;15.00;99.90;;;;;;5011325;28;20028;-78
2022/11/01 06:48:32;;;;;;;2.15;0.90;;;15.00;99.90;;;;;;5012150;28;20030;-78
2022/11/01 06:51:03;;;;;;;2.42;0.90;;;14.90;99.90;;;;;;5012190;28;20040;-78
2022/11/01 06:53:29;;;;;;;3.67;0.80;;;14.90;99.90;;;;;;5012476;28;20046;-78
2022/11/01 06:55:58;;;;;;;2.30;0.75;;;15.10;99.90;;;;;;5011919;28;20037;-78
2022/11/01 06:58:23;;;;;;;1.80;0.68;;;15.10;99.90;;;;;;5012099;28;20030;-78
2022/11/01 07:00:50;;;;;;;1.70;0.85;;;15.10;99.90;;;;;;5012105;28;20025;-78
2022/11/01 07:03:15;;;;;;;3.08;1.08;;;15.30;99.90;;;;;;4992643;28;20077;-78
2022/11/01 07:05:41;;;;;;;2.88;0.90;;;15.30;99.90;;;;;;5002759;28;20026;-78
2022/11/01 07:08:10;;;;;;;4.18;0.90;;;15.20;99.90;;;;;;5011906;28;20026;-78
2022/11/01 07:10:39;;;;;;;2.50;0.50;;;15.30;99.90;;;;;;5011893;28;20026;-78
2022/11/01 07:13:06;;;;;;;1.30;0.70;;;15.40;99.90;;;;;;5011360;28;20030;-78
2022/11/01 07:15:32;;;;;;;1.50;0.70;;;15.30;99.90;;;;;;5002528;28;20028;-78
2022/11/01 07:17:59;;;;;;;1.75;0.73;;;15.30;99.90;;;;;;5012038;28;20096;-78
2022/11/01 07:20:27;;;;;;;1.40;0.70;;;15.40;99.90;;;;;;5011901;28;20033;-78
2022/11/01 07:23:02;;;;;;;2.72;0.73;;;15.40;99.90;;;;;;5012146;28;20042;-78
2022/11/01 07:25:29;;;;;;;2.45;0.95;;;15.50;99.90;;;;;;5011854;28;20061;-78
2022/11/01 07:27:55;;;;;;;1.15;0.63;;;15.60;99.90;;;;;;5011845;28;20030;-78
2022/11/01 07:30:20;;;;;;;2.45;0.75;;;15.50;99.90;;;;;;5012723;28;20022;-78
2022/11/01 07:32:46;;;;;;;1.83;0.77;;;15.60;99.90;;;;;;5015343;28;20021;-78
2022/11/01 07:35:12;;;;;;;2.13;0.73;;;15.50;99.90;;;;;;5015273;28;20396;-78
2022/11/01 07:37:38;;;;;;;3.40;1.60;;;15.60;99.90;;;;;;5015246;28;20105;-78
2022/11/01 07:40:05;;;;;;;2.05;1.15;;;15.70;99.90;;;;;;5015252;28;20056;-78
2022/11/01 07:42:30;;;;;;;2.05;0.75;;;15.60;99.90;;;;;;5014702;28;20496;-78
2022/11/01 07:44:56;;;;;;;2.45;0.75;;;15.60;99.90;;;;;;5013000;28;20084;-78
2022/11/01 07:47:22;;;;;;;1.92;0.70;;;15.70;99.90;;;;;;5015059;28;20064;-78
2022/11/01 07:49:49;;;;;;;10.02;1.17;;;15.70;99.90;;;;;;5007229;28;20373;-78
2022/11/01 07:52:15;;;;;;;2.00;0.68;;;15.70;99.90;;;;;;4995290;28;20101;-78
2022/11/01 07:54:41;;;;;;;2.67;0.75;;;15.80;99.90;;;;;;4995539;28;20026;-78
2022/11/01 07:57:08;;;;;;;1.70;0.60;;;15.90;99.90;;;;;;4995081;28;20029;-78
2022/11/01 07:59:34;;;;;;;0.68;0.52;;;16.00;99.90;;;;;;4994976;28;20022;-78
2022/11/01 08:01:59;;;;;;;1.42;0.50;;;16.00;99.90;;;;;;4994927;28;20106;-78
2022/11/01 08:04:25;;;;;;;0.80;0.47;;;15.90;99.90;;;;;;4995229;28;20476;-78
2022/11/01 08:06:51;;;;;;;1.27;0.60;;;16.00;99.90;;;;;;4995142;28;20042;-78
2022/11/01 08:09:16;;;;;;;3.25;0.60;;;16.00;99.90;;;;;;4994994;28;20540;-78
2022/11/01 08:11:42;;;;;;;1.13;0.63;;;16.00;99.90;;;;;;5026126;28;20025;-78
2022/11/01 08:14:08;;;;;;;1.23;0.80;;;16.30;99.90;;;;;;5000672;28;20053;-78
2022/11/01 08:16:34;;;;;;;1.45;0.88;;;16.50;99.90;;;;;;5014646;28;20014;-78
2022/11/01 08:18:59;;;;;;;1.67;0.90;;;17.00;99.90;;;;;;5014720;28;20037;-78
2022/11/01 08:21:25;;;;;;;2.88;0.80;;;17.20;99.90;;;;;;5014453;28;20022;-78
2022/11/01 08:23:51;;;;;;;2.60;0.85;;;19.60;99.90;;;;;;5014527;28;20501;-78
2022/11/01 08:26:17;;;;;;;2.90;1.05;;;22.90;99.90;;;;;;5014154;28;20396;-78
2022/11/01 08:28:42;;;;;;;2.78;1.17;;;24.50;99.30;;;;;;5014042;28;20069;-79
2022/11/01 08:31:09;;;;;;;2.67;1.20;;;22.80;99.90;;;;;;5014217;28;20467;-79
2022/11/01 08:33:35;;;;;;;1.88;0.85;;;24.60;98.80;;;;;;5014546;28;20026;-79
2022/11/01 08:36:00;;;;;;;2.05;0.82;;;23.60;99.20;;;;;;5014195;28;20022;-79
2022/11/01 08:38:26;;;;;;;2.70;0.80;;;20.90;99.90;;;;;;5013885;28;20117;-79
2022/11/01 08:40:53;;;;;;;2.20;0.98;;;19.30;99.90;;;;;;5012266;28;20109;-78
2022/11/01 08:43:19;;;;;;;1.85;1.10;;;18.90;99.90;;;;;;4993547;28;20033;-79
2022/11/01 08:45:44;;;;;;;1.90;0.70;;;18.80;99.90;;;;;;5009521;28;20053;-79
2022/11/01 08:48:10;;;;;;;1.08;0.80;;;18.60;99.90;;;;;;5014182;28;20022;-78
2022/11/01 08:50:37;;;;;;;2.00;0.52;;;18.60;99.90;;;;;;5013700;28;20018;-78
2022/11/01 08:53:11;;;;;;;1.60;0.50;;;19.10;99.90;;;;;;5013744;28;20029;-79
2022/11/01 08:55:37;;;;;;;2.08;0.75;;;18.20;99.90;;;;;;5013812;28;20101;-79
2022/11/01 08:58:03;;;;;;;1.92;0.90;;;17.70;99.90;;;;;;5013713;28;20061;-79
2022/11/01 09:00:29;;;;;;;3.03;1.10;;;17.80;99.90;;;;;;5013584;28;20109;-79
2022/11/01 09:02:55;;;;;;;1.90;0.70;;;17.70;99.90;;;;;;5013905;28;20441;-79
2022/11/01 09:05:21;;;;;;;1.95;0.70;;;17.50;99.90;;;;;;5013806;28;20022;-79
2022/11/01 09:07:47;;;;;;;2.28;1.00;;;17.50;99.90;;;;;;5013394;28;20057;-78
2022/11/01 09:10:15;;;;;;;2.28;0.80;;;17.60;99.90;;;;;;5013917;28;20022;-78
2022/11/01 09:12:41;;;;;;;1.17;0.80;;;17.90;99.90;;;;;;5013119;28;20026;-79
2022/11/01 09:15:08;;;;;;;2.05;0.90;;;18.40;99.90;;;;;;5012986;28;20026;-79
2022/11/01 09:17:33;;;;;;;0.82;0.63;;;18.10;99.90;;;;;;5013442;28;20034;-78
2022/11/01 09:19:59;;;;;;;2.00;0.90;;;18.10;99.90;;;;;;5013563;28;20079;-78
2022/11/01 09:22:25;;;;;;;2.05;0.80;;;17.70;99.90;;;;;;5013280;28;20407;-78
2022/11/01 09:24:54;;;;;;;2.22;1.00;;;17.30;99.90;;;;;;5013484;28;20073;-79
2022/11/01 09:27:19;;;;;;;2.55;1.10;;;17.10;99.90;;;;;;5012938;28;20045;-78
2022/11/01 09:29:45;;;;;;;1.40;0.90;;;16.90;99.90;;;;;;5013166;28;20021;-78
2022/11/01 09:32:11;;;;;;;1.30;0.80;;;16.90;99.90;;;;;;5012951;28;20029;-79
2022/11/01 09:34:36;;;;;;;1.27;0.75;;;16.90;99.90;;;;;;5013222;28;20431;-79
2022/11/01 09:37:03;;;;;;;1.05;0.75;;;17.00;99.90;;;;;;5013111;28;20022;-78
2022/11/01 09:39:29;;;;;;;2.40;0.70;;;17.00;99.90;;;;;;4995986;28;20098;-78
2022/11/01 09:42:10;;;;;;;0.95;0.50;;;17.30;99.90;;;;;;5002522;28;20054;-78
2022/11/01 09:44:40;;;;;;;2.83;1.42;;;17.50;99.90;;;;;;5012624;28;20017;-78
2022/11/01 09:47:13;;;;;;;3.10;0.88;;;17.70;99.90;;;;;;5012550;28;20018;-79
2022/11/01 09:49:40;;;;;;;3.65;1.10;;;17.70;99.90;;;;;;5013015;28;20133;-79
2022/11/01 09:52:09;;;;;;;2.08;1.48;;;18.10;99.90;;;;;;5012627;28;20074;-78
2022/11/01 09:54:34;;;;;;;3.03;1.02;;;18.30;99.90;;;;;;5012346;28;20025;-79
2022/11/01 09:57:18;;;;;;;1.90;0.90;;;18.30;99.90;;;;;;5012953;28;20026;-79
2022/11/01 09:59:59;;;;;;;2.42;0.93;;;18.80;99.90;;;;;;5012622;28;20030;-79
2022/11/01 10:02:47;;;;;;;1.90;1.10;;;18.90;99.90;;;;;;5012477;28;20059;-79
2022/11/01 10:05:25;;;;;;;1.83;0.90;;;19.00;99.90;;;;;;5012651;28;20057;-79
2022/11/01 10:07:59;;;;;;;1.75;0.80;;;18.80;99.90;;;;;;5012442;28;20479;-79
2022/11/01 10:10:56;;;;;;;1.48;0.80;;;19.00;99.90;;;;;;5012528;28;20108;-79
2022/11/01 10:13:56;;;;;;;2.05;0.80;;;19.00;99.90;;;;;;5012433;28;20097;-79
2022/11/01 10:16:48;;;;;;;3.03;1.27;;;18.70;99.90;;;;;;5012338;28;20057;-78
2022/11/01 10:19:15;;;;;;;3.05;0.90;;;18.60;99.90;;;;;;5004383;28;20037;-79
2022/11/01 10:22:00;;;;;;;2.92;1.13;;;18.50;99.90;;;;;;5012401;28;20022;-79
2022/11/01 10:24:28;;;;;;;3.03;1.05;;;18.20;99.90;;;;;;5012526;28;20026;-79
2022/11/01 10:27:02;;;;;;;3.25;1.00;;;18.00;99.90;;;;;;5012424;28;20069;-79
2022/11/01 10:29:44;;;;;;;3.47;0.88;;;18.00;99.90;;;;;;5012434;28;20034;-79
2022/11/01 10:32:34;;;;;;;3.50;1.10;;;17.90;99.90;;;;;;5012177;28;20034;-79
2022/11/01 10:35:13;;;;;;;5.40;1.05;;;17.90;99.90;;;;;;5012347;28;20018;-79
2022/11/01 10:37:45;;;;;;;3.42;0.95;;;17.90;99.90;;;;;;5010071;28;20025;-79
2022/11/01 10:40:40;;;;;;;2.78;1.00;;;17.90;99.90;;;;;;4992677;28;20030;-79
2022/11/01 10:43:20;;;;;;;2.30;0.80;;;17.90;99.90;;;;;;5010968;28;20037;-79
2022/11/01 10:45:49;;;;;;;2.28;0.98;;;17.80;99.90;;;;;;5012164;28;20111;-79
2022/11/01 10:48:30;;;;;;;1.73;0.52;;;17.90;99.90;;;;;;5012309;28;20054;-78
2022/11/01 10:51:00;;;;;;;0.98;0.70;;;18.00;99.90;;;;;;5012303;28;20042;-79
2022/11/01 10:53:42;;;;;;;2.97;0.82;;;17.90;99.90;;;;;;5012049;28;20033;-79
2022/11/01 10:56:14;;;;;;;1.10;0.65;;;18.00;99.90;;;;;;5012388;28;20494;-79
2022/11/01 10:58:46;;;;;;;1.98;0.80;;;18.00;99.90;;;;;;5012024;28;20133;-79
2022/11/01 11:01:17;;;;;;;0.95;0.60;;;18.10;99.90;;;;;;5012342;28;20102;-79
2022/11/01 11:03:45;;;;;;;1.52;0.82;;;18.20;99.90;;;;;;5011964;28;20109;-79
2022/11/01 11:06:14;;;;;;;1.45;1.05;;;18.30;99.90;;;;;;5014867;28;20101;-79
2022/11/01 11:08:42;;;;;;;2.40;0.93;;;18.30;99.90;;;;;;5015618;28;20030;-79
2022/11/01 11:11:14;;;;;;;1.30;0.70;;;18.30;99.90;;;;;;5015646;28;20022;-78
2022/11/01 11:13:48;;;;;;;1.67;0.77;;;18.40;99.90;;;;;;5015487;28;20030;-79
2022/11/01 11:16:35;;;;;;;2.47;0.95;;;18.50;99.90;;;;;;5015816;28;20113;-79
2022/11/01 11:19:06;;;;;;;1.48;0.70;;;18.50;99.90;;;;;;5015640;28;20049;-79
2022/11/01 11:21:33;;;;;;;1.75;0.80;;;18.30;99.90;;;;;;5015475;28;20066;-79
2022/11/01 11:24:00;;;;;;;3.80;1.00;;;18.30;99.90;;;;;;5015733;28;20034;-79
2022/11/01 11:26:26;;;;;;;3.58;0.80;;;18.30;99.90;;;;;;5015356;28;20088;-79
2022/11/01 11:28:55;;;;;;;1.95;0.65;;;18.30;99.90;;;;;;5015206;28;20037;-79
2022/11/01 11:31:30;;;;;;;2.40;1.00;;;18.20;99.90;;;;;;5015299;28;20049;-79
2022/11/01 11:33:59;;;;;;;2.13;0.93;;;18.30;99.90;;;;;;5015141;28;20052;-79
2022/11/01 11:36:39;;;;;;;3.33;1.13;;;18.40;99.90;;;;;;5015202;28;20018;-79
2022/11/01 11:39:05;;;;;;;2.70;1.08;;;18.90;99.90;;;;;;5001430;28;20037;-79
2022/11/01 11:41:35;;;;;;;2.38;0.73;;;18.80;99.90;;;;;;5002120;28;20100;-79
2022/11/01 11:44:01;;;;;;;1.90;0.90;;;19.00;99.90;;;;;;5014938;28;20026;-79
2022/11/01 11:46:27;;;;;;;2.72;1.35;;;19.10;99.90;;;;;;5015311;28;20026;-79
2022/11/01 11:48:57;;;;;;;2.20;1.20;;;19.00;99.90;;;;;;5014817;28;20117;-79
2022/11/01 11:51:26;;;;;;;2.13;1.17;;;19.10;99.90;;;;;;5014927;28;20088;-79
2022/11/01 11:54:16;;;;;;;2.15;1.00;;;19.20;99.90;;;;;;5014853;28;20032;-79
2022/11/01 11:56:43;;;;;;;3.47;1.27;;;19.10;99.90;;;;;;5015125;28;20018;-79
2022/11/01 11:59:28;;;;;;;4.15;1.20;;;19.20;99.90;;;;;;5014644;28;20064;-79
2022/11/01 12:02:12;;;;;;;2.35;1.20;;;19.00;99.90;;;;;;5014785;28;20026;-80
2022/11/01 12:04:45;;;;;;;4.05;1.25;;;19.10;99.90;;;;;;5014569;28;20034;-79
2022/11/01 12:07:47;;;;;;;1.33;0.98;;;19.10;99.90;;;;;;5014420;28;20101;-79
2022/11/01 12:10:36;;;;;;;3.88;0.98;;;19.00;99.90;;;;;;4953970;29;20110;-79
2022/11/01 12:13:22;;;;;;;1.67;0.80;;;19.00;99.90;;;;;;4953666;29;20032;-79
2022/11/01 12:15:48;;;;;;;2.20;1.15;;;19.20;99.90;;;;;;4934337;29;20020;-79
2022/11/01 12:18:18;;;;;;;4.60;1.10;;;19.20;99.90;;;;;;4934683;29;20411;-79
2022/11/01 12:20:51;;;;;;;2.70;0.77;;;19.10;99.90;;;;;;4934305;29;20028;-79
2022/11/01 12:23:19;;;;;;;1.67;1.17;;;19.20;99.90;;;;;;4934486;29;20119;-79
2022/11/01 12:25:47;;;;;;;2.10;0.80;;;19.40;99.90;;;;;;4934429;29;20059;-79
2022/11/01 12:28:19;;;;;;;1.63;1.10;;;19.60;99.90;;;;;;4934322;29;20028;-79
2022/11/01 12:30:48;;;;;;;2.08;0.90;;;19.60;99.90;;;;;;4934495;29;20040;-79
2022/11/01 12:33:23;;;;;;;1.35;0.90;;;19.70;99.90;;;;;;4934244;29;20020;-79
2022/11/01 12:35:53;;;;;;;1.85;0.85;;;19.50;99.90;;;;;;4934020;29;20156;-80
2022/11/01 12:38:34;;;;;;;2.65;1.27;;;19.50;99.90;;;;;;4941439;29;20094;-80
2022/11/01 12:41:22;;;;;;;4.10;1.10;;;19.50;99.90;;;;;;4951023;29;20113;-80
2022/11/01 12:44:17;;;;;;;1.90;0.70;;;19.40;99.90;;;;;;4954812;28;20038;-80
2022/11/01 12:47:16;;;;;;;2.95;1.00;;;19.50;99.90;;;;;;4994395;28;20052;-80
2022/11/01 12:49:48;;;;;;;1.98;0.60;;;19.50;99.90;;;;;;4959683;28;20039;-80
2022/11/01 12:52:51;;;;;;;2.25;0.90;;;19.60;99.90;;;;;;4972631;28;20042;-79
2022/11/01 12:55:34;;;;;;;3.00;0.80;;;19.50;99.90;;;;;;4972451;28;20034;-79
2022/11/01 12:58:01;;;;;;;1.77;0.90;;;19.40;99.90;;;;;;4972321;28;20031;-79
2022/11/01 13:00:40;;;;;;;1.40;0.60;;;19.40;99.90;;;;;;4972227;28;20094;-79
2022/11/01 13:03:15;;;;;;;0.95;0.75;;;19.20;99.90;;;;;;4971991;28;20065;-79
2022/11/01 13:05:56;;;;;;;2.80;1.10;;;19.20;99.90;;;;;;4972138;28;20034;-80
2022/11/01 13:08:49;;;;;;;2.90;0.93;;;19.30;99.90;;;;;;4972028;28;20046;-80
2022/11/01 13:11:37;;;;;;;2.58;1.13;;;19.10;99.90;;;;;;4972039;28;20034;-80
2022/11/01 13:14:11;;;;;;;2.65;0.85;;;19.10;99.90;;;;;;4971889;28;20042;-80
2022/11/01 13:16:43;;;;;;;3.92;1.10;;;19.00;99.90;;;;;;4971955;28;20541;-80